Potash Bay, Vermont
Current Conditions -  °F | °C
As of 6:55 AM on Friday 21 Nov 2014 (Local Time) from K6B0 Reporting Station
Overcast Overcast  
Wind Chill: 23°   Ceiling: 4600
Heat Index: 23°   Visibility: 10mi
Dew Point: 14°   Wind: 0mph
Humidity: 68%   Direction: NA
Pressure: 30.02"   Gusts: NA
Location:  44.0804°N, 73.3324°W
Report Text: K6B0 211155Z AUTO 00000KT 10SM SCT035 BKN046 OVC060 M05/M10 A3002 RMK AO2 T10491099 11044 21054
Loading
Personal Weather Stations






























Interactive Weather Map New forecast layout! Learn more

10-Day Weather Forecast

Advertisements
Track Severe Weather on mobile